Time;durP1;ratioP1;P1;durP2;ratioP2;P2;SDS_P1;SDS_P2;PMS_P1;PMS_P2;Temp;Humidity;BMP_temperature;BMP_pressure;BME280_temperature;BME280_humidity;BME280_pressure;Samples;Min_cycle;Max_cycle;Signal;HPM_P1;HPM_P2
2022/03/03 00:02:18;;;;;;;22.33;13.23;;;;;;;;;;4984736;28;20050;-73
2022/03/03 00:04:44;;;;;;;25.30;14.25;;;;;;;;;;4978729;28;20077;-73
2022/03/03 00:07:10;;;;;;;26.08;13.80;;;;;;;;;;4972710;28;20442;-73
2022/03/03 00:09:37;;;;;;;26.83;13.63;;;;;;;;;;4991396;28;20056;-72
2022/03/03 00:12:03;;;;;;;23.15;13.50;;;;;;;;;;4985775;28;20117;-73
2022/03/03 00:14:30;;;;;;;23.02;13.63;;;;;;;;;;4978256;28;20057;-73
2022/03/03 00:16:56;;;;;;;24.83;13.70;;;;;;;;;;4982445;28;20046;-73
2022/03/03 00:19:22;;;;;;;23.77;12.98;;;;;;;;;;4974286;28;20120;-73
2022/03/03 00:21:49;;;;;;;24.83;14.40;;;;;;;;;;4979686;28;20050;-73
2022/03/03 00:24:15;;;;;;;23.40;13.60;;;;;;;;;;4983551;28;20054;-73
2022/03/03 00:26:41;;;;;;;25.73;13.82;;;;;;;;;;4985432;28;20273;-73
2022/03/03 00:29:09;;;;;;;21.83;13.93;;;;;;;;;;4984693;28;20058;-73
2022/03/03 00:31:35;;;;;;;24.73;14.32;;;;;;;;;;4974805;28;20416;-74
2022/03/03 00:34:02;;;;;;;22.63;13.05;;;;;;;;;;4976557;28;20621;-73
2022/03/03 00:36:28;;;;;;;25.27;14.75;;;;;;;;;;4974905;28;20050;-73
2022/03/03 00:38:54;;;;;;;25.30;14.43;;;;;;;;;;4984448;28;20534;-73
2022/03/03 00:41:21;;;;;;;23.95;13.95;;;;;;;;;;4980859;28;20057;-73
2022/03/03 00:43:47;;;;;;;23.75;13.77;;;;;;;;;;4973416;28;20057;-73
2022/03/03 00:46:13;;;;;;;25.13;14.13;;;;;;;;;;4986320;28;20049;-72
2022/03/03 00:48:40;;;;;;;29.50;14.70;;;;;;;;;;4974198;28;20055;-73
2022/03/03 00:51:07;;;;;;;25.38;13.68;;;;;;;;;;4977529;28;20061;-72
2022/03/03 00:53:34;;;;;;;23.52;13.80;;;;;;;;;;4973945;28;20061;-72
2022/03/03 00:56:00;;;;;;;26.45;14.25;;;;;;;;;;4999145;28;20054;-72
2022/03/03 00:58:27;;;;;;;25.55;14.65;;;;;;;;;;4984505;28;20050;-73
2022/03/03 01:00:53;;;;;;;24.38;13.68;;;;;;;;;;4977411;28;20053;-73
2022/03/03 01:03:25;;;;;;;27.20;14.88;;;;;;;;;;4979377;28;20050;-72
2022/03/03 01:05:51;;;;;;;26.23;14.77;;;;;;;;;;4976177;28;20049;-73
2022/03/03 01:08:17;;;;;;;25.55;13.77;;;;;;;;;;4984415;28;20092;-73
2022/03/03 01:10:44;;;;;;;25.35;14.68;;;;;;;;;;4975618;28;20053;-73
2022/03/03 01:13:10;;;;;;;26.65;14.13;;;;;;;;;;4983482;28;20046;-73
2022/03/03 01:15:37;;;;;;;27.92;15.05;;;;;;;;;;4984255;28;20046;-72
2022/03/03 01:18:03;;;;;;;22.48;12.80;;;;;;;;;;4983250;28;20144;-73
2022/03/03 01:20:30;;;;;;;26.70;14.52;;;;;;;;;;4984376;28;20057;-72
2022/03/03 01:22:57;;;;;;;26.65;14.13;;;;;;;;;;4985935;28;20061;-73
2022/03/03 01:25:23;;;;;;;24.48;13.52;;;;;;;;;;4990950;28;20053;-72
2022/03/03 01:27:49;;;;;;;26.90;13.35;;;;;;;;;;4970509;28;20433;-72
2022/03/03 01:30:16;;;;;;;23.52;13.73;;;;;;;;;;4976414;28;20054;-72
2022/03/03 01:32:42;;;;;;;23.75;14.05;;;;;;;;;;4983824;28;20050;-73
2022/03/03 01:35:08;;;;;;;29.80;14.73;;;;;;;;;;4976098;28;20058;-72
2022/03/03 01:37:35;;;;;;;25.52;13.40;;;;;;;;;;4984173;28;20054;-72
2022/03/03 01:40:01;;;;;;;25.33;13.55;;;;;;;;;;4975731;28;20046;-72
2022/03/03 01:42:28;;;;;;;25.38;14.10;;;;;;;;;;4978267;28;20042;-72
2022/03/03 01:44:54;;;;;;;24.60;13.98;;;;;;;;;;4975874;28;20054;-73
2022/03/03 01:47:25;;;;;;;25.85;14.43;;;;;;;;;;4983914;28;20740;-72
2022/03/03 01:49:52;;;;;;;22.77;13.23;;;;;;;;;;4977629;28;20057;-72
2022/03/03 01:52:19;;;;;;;26.70;14.35;;;;;;;;;;4968373;28;20057;-72
2022/03/03 01:54:46;;;;;;;24.23;13.60;;;;;;;;;;4981586;28;20050;-72
2022/03/03 01:57:15;;;;;;;27.48;13.98;;;;;;;;;;4967637;28;20061;-72
2022/03/03 01:59:41;;;;;;;24.17;13.45;;;;;;;;;;4993971;28;20483;-72
2022/03/03 02:02:09;;;;;;;24.33;13.80;;;;;;;;;;4976613;28;20976;-73
2022/03/03 02:04:36;;;;;;;26.90;14.93;;;;;;;;;;4980219;28;20055;-73
2022/03/03 02:07:03;;;;;;;28.38;14.77;;;;;;;;;;4980676;28;20431;-72
2022/03/03 02:09:29;;;;;;;28.88;14.98;;;;;;;;;;4968495;28;20418;-73
2022/03/03 02:11:55;;;;;;;25.75;13.75;;;;;;;;;;4982718;28;21479;-73
2022/03/03 02:14:22;;;;;;;26.75;14.60;;;;;;;;;;4978624;28;20054;-73
2022/03/03 02:16:49;;;;;;;26.90;14.25;;;;;;;;;;4982625;28;20054;-73
2022/03/03 02:19:17;;;;;;;24.60;13.93;;;;;;;;;;4973059;28;20054;-73
2022/03/03 02:21:48;;;;;;;28.92;15.25;;;;;;;;;;4977949;28;20810;-73
2022/03/03 02:24:15;;;;;;;25.75;14.75;;;;;;;;;;4978208;28;20052;-73
2022/03/03 02:26:42;;;;;;;26.58;14.10;;;;;;;;;;4973997;28;20046;-73
2022/03/03 02:29:08;;;;;;;23.77;14.20;;;;;;;;;;4983862;28;20050;-73
2022/03/03 02:31:34;;;;;;;26.42;15.07;;;;;;;;;;4978782;28;20042;-74
2022/03/03 02:34:01;;;;;;;24.95;14.50;;;;;;;;;;4982026;28;20142;-73
2022/03/03 02:36:28;;;;;;;26.08;14.88;;;;;;;;;;4976324;28;20065;-73
2022/03/03 02:38:56;;;;;;;25.67;15.00;;;;;;;;;;4975095;28;20054;-73
2022/03/03 02:41:22;;;;;;;24.90;14.05;;;;;;;;;;4992923;28;20042;-73
2022/03/03 02:43:49;;;;;;;25.73;14.57;;;;;;;;;;4978026;28;20070;-73
2022/03/03 02:46:15;;;;;;;26.48;15.15;;;;;;;;;;4983891;28;20080;-73
2022/03/03 02:48:42;;;;;;;30.05;15.30;;;;;;;;;;4982931;28;20042;-73
2022/03/03 02:51:08;;;;;;;24.17;14.18;;;;;;;;;;4983700;28;20050;-73
2022/03/03 02:53:35;;;;;;;25.73;14.63;;;;;;;;;;4986040;28;20133;-73
2022/03/03 02:56:02;;;;;;;30.00;15.60;;;;;;;;;;4978088;28;20057;-73
2022/03/03 02:58:28;;;;;;;26.45;15.48;;;;;;;;;;4988271;28;20054;-73
2022/03/03 03:00:55;;;;;;;25.48;14.95;;;;;;;;;;4978733;28;20065;-73
2022/03/03 03:03:22;;;;;;;26.25;15.25;;;;;;;;;;4992083;28;20133;-73
2022/03/03 03:05:49;;;;;;;28.95;15.40;;;;;;;;;;4983726;28;20418;-73
2022/03/03 03:08:15;;;;;;;28.95;15.90;;;;;;;;;;4987200;28;20050;-72
2022/03/03 03:10:42;;;;;;;26.85;14.82;;;;;;;;;;4984527;28;20050;-72
2022/03/03 03:13:11;;;;;;;27.45;15.30;;;;;;;;;;4982151;28;20058;-72
2022/03/03 03:15:37;;;;;;;28.25;16.45;;;;;;;;;;4984673;28;20054;-72
2022/03/03 03:18:11;;;;;;;27.45;15.38;;;;;;;;;;4970866;28;20066;-72
2022/03/03 03:20:38;;;;;;;27.15;15.73;;;;;;;;;;4987451;28;20061;-72
2022/03/03 03:23:05;;;;;;;28.73;16.58;;;;;;;;;;4988317;28;20080;-73
2022/03/03 03:25:31;;;;;;;28.75;15.77;;;;;;;;;;4980215;28;20045;-72
2022/03/03 03:27:57;;;;;;;27.83;16.13;;;;;;;;;;4980076;28;20058;-73
2022/03/03 03:30:24;;;;;;;29.75;16.55;;;;;;;;;;4980541;28;20553;-72
2022/03/03 03:32:54;;;;;;;28.98;15.75;;;;;;;;;;4980957;28;20058;-73
2022/03/03 03:35:20;;;;;;;28.95;16.20;;;;;;;;;;4991669;28;20061;-73
2022/03/03 03:37:47;;;;;;;27.42;15.50;;;;;;;;;;4991279;28;20522;-73
2022/03/03 03:40:13;;;;;;;29.38;16.13;;;;;;;;;;4979364;28;20051;-73
2022/03/03 03:42:39;;;;;;;28.30;16.65;;;;;;;;;;4980972;28;20486;-73
2022/03/03 03:45:06;;;;;;;27.50;15.40;;;;;;;;;;4980532;28;20057;-72
2022/03/03 03:47:32;;;;;;;28.60;15.95;;;;;;;;;;4970027;28;20046;-72
2022/03/03 03:50:02;;;;;;;25.35;14.95;;;;;;;;;;4986072;28;20420;-72
2022/03/03 03:52:28;;;;;;;30.08;15.90;;;;;;;;;;4977002;28;20077;-73
2022/03/03 03:54:55;;;;;;;31.50;17.10;;;;;;;;;;4979667;28;20058;-72
2022/03/03 03:57:21;;;;;;;28.77;16.27;;;;;;;;;;4981754;28;20046;-72
2022/03/03 03:59:48;;;;;;;27.55;16.10;;;;;;;;;;4988743;28;20058;-72
2022/03/03 04:02:14;;;;;;;29.73;17.27;;;;;;;;;;4991513;28;20058;-72
2022/03/03 04:04:41;;;;;;;31.73;17.23;;;;;;;;;;4983530;28;20046;-72
2022/03/03 04:07:07;;;;;;;25.27;14.25;;;;;;;;;;4991408;28;20060;-72
2022/03/03 04:09:34;;;;;;;27.27;15.50;;;;;;;;;;4971913;28;20051;-72
2022/03/03 04:12:02;;;;;;;27.08;15.05;;;;;;;;;;4979896;28;20137;-72
2022/03/03 04:14:28;;;;;;;25.40;14.95;;;;;;;;;;4982442;28;20050;-72
2022/03/03 04:16:54;;;;;;;25.25;14.75;;;;;;;;;;4991688;28;20389;-72
2022/03/03 04:19:21;;;;;;;25.88;15.23;;;;;;;;;;4983880;28;20046;-72
2022/03/03 04:21:47;;;;;;;26.70;15.93;;;;;;;;;;4978628;28;20138;-72
2022/03/03 04:24:14;;;;;;;31.10;15.57;;;;;;;;;;4983194;28;20180;-72
2022/03/03 04:26:40;;;;;;;28.58;15.50;;;;;;;;;;4977207;28;20042;-72
2022/03/03 04:29:07;;;;;;;24.50;14.23;;;;;;;;;;4987187;28;20050;-72
2022/03/03 04:31:33;;;;;;;26.40;15.52;;;;;;;;;;4999784;28;20057;-72
2022/03/03 04:33:59;;;;;;;28.27;15.48;;;;;;;;;;4974506;28;20054;-72
2022/03/03 04:36:26;;;;;;;26.63;14.85;;;;;;;;;;4982291;28;20046;-72
2022/03/03 04:38:52;;;;;;;27.65;15.75;;;;;;;;;;4971057;28;20191;-72
2022/03/03 04:41:19;;;;;;;30.08;15.50;;;;;;;;;;4982478;28;20055;-72
2022/03/03 04:43:47;;;;;;;26.23;15.00;;;;;;;;;;4974792;28;20046;-72
2022/03/03 04:46:14;;;;;;;28.98;15.85;;;;;;;;;;4981860;28;20049;-72
2022/03/03 04:48:40;;;;;;;27.77;14.80;;;;;;;;;;4979979;28;21151;-72
2022/03/03 04:51:07;;;;;;;24.60;15.88;;;;;;;;;;4977332;28;20416;-72
2022/03/03 04:53:33;;;;;;;26.45;15.07;;;;;;;;;;4987089;28;20047;-72
2022/03/03 04:56:00;;;;;;;25.38;14.20;;;;;;;;;;4976415;28;20299;-72
2022/03/03 04:58:26;;;;;;;26.42;15.68;;;;;;;;;;4968262;28;20415;-72
2022/03/03 05:00:52;;;;;;;26.55;16.00;;;;;;;;;;4975179;28;20051;-72
2022/03/03 05:03:19;;;;;;;28.13;16.77;;;;;;;;;;4983702;28;20046;-72
2022/03/03 05:05:45;;;;;;;27.40;16.60;;;;;;;;;;4983040;28;20046;-72
2022/03/03 05:08:11;;;;;;;27.52;16.33;;;;;;;;;;4977338;28;20042;-72
2022/03/03 05:10:38;;;;;;;25.90;14.82;;;;;;;;;;4988088;28;20462;-71
2022/03/03 05:13:04;;;;;;;27.63;15.73;;;;;;;;;;4988558;28;20418;-71
2022/03/03 05:15:30;;;;;;;24.67;14.63;;;;;;;;;;4978978;28;20188;-71
2022/03/03 05:17:58;;;;;;;29.25;16.15;;;;;;;;;;4974224;28;20508;-72
2022/03/03 05:20:25;;;;;;;25.73;14.90;;;;;;;;;;4983967;28;20397;-71
2022/03/03 05:22:51;;;;;;;27.65;15.82;;;;;;;;;;4981926;28;20058;-71
2022/03/03 05:25:17;;;;;;;26.73;14.85;;;;;;;;;;4983993;28;20624;-71
2022/03/03 05:27:43;;;;;;;27.67;15.60;;;;;;;;;;4977672;28;20046;-72
2022/03/03 05:30:10;;;;;;;26.10;14.93;;;;;;;;;;4975185;28;20547;-71
2022/03/03 05:32:37;;;;;;;26.90;14.30;;;;;;;;;;4981023;28;20057;-72
2022/03/03 05:35:04;;;;;;;25.48;14.10;;;;;;;;;;4982838;28;20077;-72
2022/03/03 05:37:32;;;;;;;27.20;15.05;;;;;;;;;;4984533;28;20565;-71
2022/03/03 05:39:59;;;;;;;30.98;16.50;;;;;;;;;;4982350;28;20291;-71
2022/03/03 05:42:26;;;;;;;25.05;14.25;;;;;;;;;;4986300;28;20526;-71
2022/03/03 05:44:52;;;;;;;26.67;14.27;;;;;;;;;;4979334;28;20057;-71
2022/03/03 05:47:19;;;;;;;26.50;14.15;;;;;;;;;;4982924;28;20053;-71
2022/03/03 05:49:48;;;;;;;27.73;14.82;;;;;;;;;;4980983;28;20065;-72
2022/03/03 05:52:14;;;;;;;24.90;14.32;;;;;;;;;;4992306;28;20069;-71
2022/03/03 05:54:40;;;;;;;24.05;14.30;;;;;;;;;;4980231;28;20046;-71
2022/03/03 05:57:10;;;;;;;29.05;14.82;;;;;;;;;;4976928;28;20420;-71
2022/03/03 05:59:40;;;;;;;27.08;13.90;;;;;;;;;;4969724;28;20436;-71
2022/03/03 06:02:06;;;;;;;27.58;14.52;;;;;;;;;;4969508;28;20076;-71
2022/03/03 06:04:35;;;;;;;34.85;14.40;;;;;;;;;;4970632;28;20049;-71
2022/03/03 06:07:08;;;;;;;30.10;14.68;;;;;;;;;;4966617;28;20051;-71
2022/03/03 06:09:35;;;;;;;27.42;14.68;;;;;;;;;;4969512;28;21011;-72
2022/03/03 06:12:06;;;;;;;25.67;13.80;;;;;;;;;;4973625;28;20498;-71
2022/03/03 06:14:40;;;;;;;29.15;14.70;;;;;;;;;;4986955;28;20050;-71
2022/03/03 06:17:07;;;;;;;26.60;14.60;;;;;;;;;;4966797;28;20046;-71
2022/03/03 06:19:39;;;;;;;26.63;14.40;;;;;;;;;;4987103;28;20109;-71
2022/03/03 06:22:08;;;;;;;24.33;14.30;;;;;;;;;;4976219;28;20054;-71
2022/03/03 06:24:35;;;;;;;26.02;13.88;;;;;;;;;;4991671;28;20058;-71
2022/03/03 06:27:01;;;;;;;24.88;14.27;;;;;;;;;;4980512;28;20058;-71
2022/03/03 06:29:27;;;;;;;26.00;13.27;;;;;;;;;;4983630;28;20061;-71
2022/03/03 06:31:54;;;;;;;26.42;14.43;;;;;;;;;;4976873;28;20093;-71
2022/03/03 06:34:20;;;;;;;30.02;15.10;;;;;;;;;;4980325;28;20054;-71
2022/03/03 06:36:47;;;;;;;24.60;14.23;;;;;;;;;;4982612;28;20530;-71
2022/03/03 06:39:13;;;;;;;25.73;12.82;;;;;;;;;;4973909;28;20046;-71
2022/03/03 06:41:40;;;;;;;25.63;14.95;;;;;;;;;;4986571;28;20156;-71
2022/03/03 06:44:07;;;;;;;25.13;14.43;;;;;;;;;;4987939;28;20065;-71
2022/03/03 06:46:34;;;;;;;30.13;15.47;;;;;;;;;;4984891;28;20142;-71
2022/03/03 06:49:00;;;;;;;39.28;15.07;;;;;;;;;;4976551;28;20318;-71
2022/03/03 06:51:28;;;;;;;28.05;15.15;;;;;;;;;;4971130;28;20051;-73
2022/03/03 06:54:01;;;;;;;24.57;14.57;;;;;;;;;;4980411;28;20081;-71
2022/03/03 06:56:29;;;;;;;24.33;14.18;;;;;;;;;;4977808;28;20303;-71
2022/03/03 06:58:57;;;;;;;30.40;15.35;;;;;;;;;;4985540;28;20054;-71
2022/03/03 07:01:24;;;;;;;23.63;14.13;;;;;;;;;;4977760;28;20057;-71
2022/03/03 07:03:51;;;;;;;27.23;14.25;;;;;;;;;;4980751;28;20518;-71
2022/03/03 07:06:18;;;;;;;26.73;15.77;;;;;;;;;;4977718;28;20523;-71
2022/03/03 07:08:45;;;;;;;27.70;14.82;;;;;;;;;;4974572;28;20046;-71
2022/03/03 07:11:13;;;;;;;27.35;15.43;;;;;;;;;;4988099;28;20362;-72
2022/03/03 07:13:41;;;;;;;28.30;15.05;;;;;;;;;;4974964;28;20496;-72
2022/03/03 07:16:08;;;;;;;;;;;;;;;;;;4986312;28;20046;-71
2022/03/03 07:18:37;;;;;;;28.00;15.38;;;;;;;;;;4979048;28;20438;-72
2022/03/03 07:21:06;;;;;;;33.83;16.23;;;;;;;;;;4978104;28;20046;-72
2022/03/03 07:23:36;;;;;;;31.35;16.42;;;;;;;;;;4989726;28;20423;-72
2022/03/03 07:26:05;;;;;;;34.67;16.98;;;;;;;;;;4970792;28;20053;-72
2022/03/03 07:28:31;;;;;;;28.13;15.70;;;;;;;;;;4979858;28;20046;-72
2022/03/03 07:30:58;;;;;;;29.95;15.52;;;;;;;;;;4977449;28;20061;-72
2022/03/03 07:33:25;;;;;;;27.70;15.05;;;;;;;;;;4976234;28;20566;-72
2022/03/03 07:35:55;;;;;;;27.77;15.25;;;;;;;;;;4976293;28;20050;-72
2022/03/03 07:38:25;;;;;;;26.60;14.07;;;;;;;;;;4985718;28;20142;-71
2022/03/03 07:40:51;;;;;;;25.17;15.07;;;;;;;;;;4982537;28;20058;-71
2022/03/03 07:43:19;;;;;;;27.20;14.65;;;;;;;;;;4975450;28;20054;-72
2022/03/03 07:45:46;;;;;;;27.38;14.85;;;;;;;;;;4980952;28;20058;-72
2022/03/03 07:48:13;;;;;;;25.67;15.30;;;;;;;;;;4972209;28;20046;-72
2022/03/03 07:50:40;;;;;;;29.73;14.85;;;;;;;;;;4978203;28;20191;-72
2022/03/03 07:53:09;;;;;;;26.73;15.38;;;;;;;;;;4965593;28;20050;-72
2022/03/03 07:55:41;;;;;;;26.92;15.50;;;;;;;;;;4983343;28;20054;-72
2022/03/03 07:58:11;;;;;;;24.38;14.75;;;;;;;;;;4978609;28;20542;-72
2022/03/03 08:00:43;;;;;;;25.15;15.35;;;;;;;;;;4973736;28;20053;-72
2022/03/03 08:03:10;;;;;;;23.17;13.75;;;;;;;;;;4976305;28;20054;-72
2022/03/03 08:05:37;;;;;;;27.10;15.55;;;;;;;;;;4986036;28;20061;-71
2022/03/03 08:08:04;;;;;;;28.85;16.20;;;;;;;;;;4983884;28;20050;-72
2022/03/03 08:10:31;;;;;;;23.17;14.27;;;;;;;;;;4962253;28;20054;-72
2022/03/03 08:12:58;;;;;;;25.27;14.50;;;;;;;;;;4986009;28;20054;-72
2022/03/03 08:15:25;;;;;;;27.30;16.02;;;;;;;;;;4979918;28;20058;-71
2022/03/03 08:17:52;;;;;;;26.40;15.90;;;;;;;;;;4974065;28;20065;-71
2022/03/03 08:20:19;;;;;;;33.53;16.38;;;;;;;;;;4982053;28;20047;-67
2022/03/03 08:22:46;;;;;;;25.42;14.07;;;;;;;;;;4974805;28;20046;-70
2022/03/03 08:25:13;;;;;;;25.00;14.57;;;;;;;;;;4982643;28;20508;-70
2022/03/03 08:27:40;;;;;;;25.10;15.52;;;;;;;;;;4986119;28;20722;-71
2022/03/03 08:30:11;;;;;;;25.33;14.57;;;;;;;;;;4975107;28;20054;-71
2022/03/03 08:32:38;;;;;;;23.70;14.80;;;;;;;;;;4995035;28;20132;-70
2022/03/03 08:35:13;;;;;;;27.08;15.13;;;;;;;;;;4977561;28;20046;-70
2022/03/03 08:37:50;;;;;;;28.85;15.20;;;;;;;;;;4995248;28;20500;-70
2022/03/03 08:40:17;;;;;;;25.42;13.73;;;;;;;;;;4974991;28;20068;-70
2022/03/03 08:42:45;;;;;;;25.80;14.35;;;;;;;;;;4978884;28;20065;-71
2022/03/03 08:45:12;;;;;;;20.95;12.15;;;;;;;;;;4970408;28;20093;-70
2022/03/03 08:47:39;;;;;;;28.20;14.73;;;;;;;;;;4981958;28;20130;-70
2022/03/03 08:50:08;;;;;;;26.55;15.88;;;;;;;;;;4983790;28;20054;-71
2022/03/03 08:52:52;;;;;;;26.95;13.57;;;;;;;;;;4975178;28;20112;-70
2022/03/03 08:55:18;;;;;;;25.10;13.77;;;;;;;;;;4982088;28;20890;-70
2022/03/03 08:57:45;;;;;;;25.80;14.85;;;;;;;;;;4968411;28;20419;-70
2022/03/03 09:00:11;;;;;;;23.58;15.07;;;;;;;;;;4984025;28;20062;-70
2022/03/03 09:02:40;;;;;;;24.75;15.05;;;;;;;;;;4977494;28;20057;-70
2022/03/03 09:05:06;;;;;;;;;;;;;;;;;;4985686;28;20061;-71
2022/03/03 09:07:33;;;;;;;21.35;13.35;;;;;;;;;;4984628;28;19967;-71
2022/03/03 09:09:59;;;;;;;22.67;13.35;;;;;;;;;;4959579;28;20042;-70
2022/03/03 09:12:26;;;;;;;23.98;14.82;;;;;;;;;;4981894;28;20050;-71
2022/03/03 09:14:52;;;;;;;27.67;15.05;;;;;;;;;;4985441;28;20419;-71
2022/03/03 09:17:18;;;;;;;23.05;14.40;;;;;;;;;;4988576;28;20046;-70
2022/03/03 09:19:45;;;;;;;25.33;15.23;;;;;;;;;;4987285;28;20058;-71
2022/03/03 09:22:11;;;;;;;30.23;15.52;;;;;;;;;;4989321;28;20058;-70
2022/03/03 09:24:37;;;;;;;27.83;16.02;;;;;;;;;;4977839;28;20054;-70
2022/03/03 09:27:04;;;;;;;25.35;15.38;;;;;;;;;;4976225;28;20054;-71
2022/03/03 09:29:33;;;;;;;24.90;14.73;;;;;;;;;;4983121;28;20114;-70
2022/03/03 09:31:59;;;;;;;24.10;14.27;;;;;;;;;;4965707;28;20133;-70
2022/03/03 09:34:26;;;;;;;23.48;14.32;;;;;;;;;;4981599;28;20069;-71
2022/03/03 09:36:52;;;;;;;25.15;13.15;;;;;;;;;;4970410;28;20042;-71
2022/03/03 09:39:19;;;;;;;19.98;12.63;;;;;;;;;;4981333;28;20053;-71
2022/03/03 09:41:45;;;;;;;22.25;12.93;;;;;;;;;;4984438;28;20061;-71
2022/03/03 09:44:13;;;;;;;23.02;14.43;;;;;;;;;;4976229;28;20529;-71
2022/03/03 09:46:40;;;;;;;24.13;14.13;;;;;;;;;;4984940;28;20509;-71
2022/03/03 09:49:07;;;;;;;26.60;13.48;;;;;;;;;;4972440;28;20043;-71
2022/03/03 09:51:33;;;;;;;22.63;12.90;;;;;;;;;;4979638;28;20464;-71
2022/03/03 09:53:59;;;;;;;23.05;13.73;;;;;;;;;;4978453;28;20547;-71
2022/03/03 09:56:26;;;;;;;17.65;11.25;;;;;;;;;;4981327;28;20760;-71
2022/03/03 09:58:52;;;;;;;23.55;13.45;;;;;;;;;;4993635;28;20053;-71
2022/03/03 10:01:19;;;;;;;25.48;13.30;;;;;;;;;;4983877;28;20058;-71
2022/03/03 10:03:47;;;;;;;24.60;13.23;;;;;;;;;;4979249;28;20153;-71
2022/03/03 10:06:14;;;;;;;22.70;13.77;;;;;;;;;;4970924;28;20051;-71
2022/03/03 10:08:40;;;;;;;20.30;12.68;;;;;;;;;;4998780;28;20068;-71
2022/03/03 10:11:09;;;;;;;21.50;12.68;;;;;;;;;;4984029;28;20048;-70
2022/03/03 10:13:35;;;;;;;;;;;;;;;;;;4964941;28;20051;-71
2022/03/03 10:16:02;;;;;;;20.15;11.45;;;;;;;;;;4982379;28;19942;-70
2022/03/03 10:18:28;;;;;;;20.20;12.68;;;;;;;;;;4968345;28;20487;-71
2022/03/03 10:20:56;;;;;;;24.25;13.55;;;;;;;;;;4981109;28;20073;-71
2022/03/03 10:23:24;;;;;;;20.38;13.27;;;;;;;;;;4976292;28;20589;-71
2022/03/03 10:25:51;;;;;;;22.55;12.77;;;;;;;;;;4987104;28;20054;-71
2022/03/03 10:28:19;;;;;;;22.55;13.15;;;;;;;;;;4993278;28;20055;-71
2022/03/03 10:30:57;;;;;;;22.63;14.57;;;;;;;;;;4972706;28;20067;-71
2022/03/03 10:33:47;;;;;;;21.30;13.95;;;;;;;;;;4975511;28;20050;-71
2022/03/03 10:36:15;;;;;;;24.20;14.20;;;;;;;;;;4977581;28;20522;-71
2022/03/03 10:38:52;;;;;;;23.00;13.82;;;;;;;;;;4981099;28;20062;-71
2022/03/03 10:41:36;;;;;;;24.05;14.32;;;;;;;;;;4973342;28;20192;-71
2022/03/03 10:44:04;;;;;;;22.60;13.82;;;;;;;;;;4980286;28;20434;-71
2022/03/03 10:46:32;;;;;;;21.92;13.80;;;;;;;;;;4970737;28;20137;-71
2022/03/03 10:48:59;;;;;;;20.83;13.07;;;;;;;;;;4981155;28;20070;-71
2022/03/03 10:51:25;;;;;;;17.75;11.40;;;;;;;;;;4981272;28;20072;-71
2022/03/03 10:53:55;;;;;;;18.50;11.90;;;;;;;;;;4976090;28;20061;-71
2022/03/03 10:56:22;;;;;;;18.55;12.30;;;;;;;;;;4977358;28;20636;-71
2022/03/03 10:58:49;;;;;;;17.40;11.55;;;;;;;;;;4968807;28;20050;-71
2022/03/03 11:01:18;;;;;;;15.18;10.10;;;;;;;;;;4972730;28;20297;-71
2022/03/03 11:03:49;;;;;;;17.45;11.40;;;;;;;;;;4970610;28;20050;-71
2022/03/03 11:06:16;;;;;;;20.77;11.60;;;;;;;;;;4983692;28;20050;-71
2022/03/03 11:08:43;;;;;;;18.60;12.02;;;;;;;;;;4973297;28;20050;-71
2022/03/03 11:11:10;;;;;;;18.15;11.30;;;;;;;;;;4976596;28;20050;-71
2022/03/03 11:13:38;;;;;;;16.98;10.95;;;;;;;;;;4974964;28;20049;-71
2022/03/03 11:16:05;;;;;;;20.67;11.45;;;;;;;;;;4981770;28;20578;-71
2022/03/03 11:18:31;;;;;;;17.67;10.57;;;;;;;;;;4996887;28;20054;-71
2022/03/03 11:20:57;;;;;;;13.85;10.23;;;;;;;;;;4977242;28;20053;-71
2022/03/03 11:23:25;;;;;;;18.15;10.68;;;;;;;;;;4984235;28;20532;-71
2022/03/03 11:25:51;;;;;;;16.52;11.25;;;;;;;;;;4979070;28;20057;-71
2022/03/03 11:28:19;;;;;;;16.48;11.10;;;;;;;;;;4965871;28;20053;-71
2022/03/03 11:30:46;;;;;;;16.55;11.73;;;;;;;;;;4992067;28;20414;-71
2022/03/03 11:33:24;;;;;;;19.17;11.75;;;;;;;;;;4972518;28;20065;-71
2022/03/03 11:35:58;;;;;;;15.25;11.07;;;;;;;;;;4986604;28;20522;-72
2022/03/03 11:38:27;;;;;;;15.93;10.40;;;;;;;;;;4988304;28;20716;-71
2022/03/03 11:40:53;;;;;;;18.88;10.75;;;;;;;;;;4980647;28;20050;-71
2022/03/03 11:43:20;;;;;;;18.48;10.05;;;;;;;;;;4979666;28;20496;-72
2022/03/03 11:45:54;;;;;;;15.05;10.18;;;;;;;;;;4983880;28;20054;-71
2022/03/03 11:48:22;;;;;;;16.40;10.40;;;;;;;;;;4993578;28;20462;-71
2022/03/03 11:50:49;;;;;;;16.07;11.00;;;;;;;;;;4985233;28;20065;-71
2022/03/03 11:53:21;;;;;;;13.32;10.02;;;;;;;;;;4980442;28;20279;-71
2022/03/03 11:55:49;;;;;;;16.70;11.13;;;;;;;;;;4970043;28;20050;-71
2022/03/03 11:58:17;;;;;;;14.07;10.27;;;;;;;;;;5001710;28;20053;-72
2022/03/03 12:01:05;;;;;;;13.95;10.50;;;;;;;;;;4981019;28;20478;-71
2022/03/03 12:03:52;;;;;;;14.38;10.40;;;;;;;;;;4970288;28;20484;-71
2022/03/03 12:06:20;;;;;;;19.02;11.05;;;;;;;;;;4975292;28;20113;-71
2022/03/03 12:08:46;;;;;;;17.90;11.33;;;;;;;;;;4980268;28;20065;-71
2022/03/03 12:11:14;;;;;;;15.85;10.63;;;;;;;;;;4984893;28;20062;-71
2022/03/03 12:13:41;;;;;;;13.07;9.70;;;;;;;;;;4972522;28;20057;-71
2022/03/03 12:16:15;;;;;;;16.83;10.10;;;;;;;;;;4986184;28;20054;-71
2022/03/03 12:18:42;;;;;;;14.38;10.45;;;;;;;;;;4974816;28;20050;-71
2022/03/03 12:21:28;;;;;;;15.35;10.50;;;;;;;;;;4980991;28;20054;-71
2022/03/03 12:24:13;;;;;;;23.00;10.63;;;;;;;;;;4975461;28;20088;-71
2022/03/03 12:26:51;;;;;;;15.35;10.32;;;;;;;;;;4986522;28;20046;-72
2022/03/03 12:29:17;;;;;;;;;;;;;;;;;;4976394;28;20697;-72
2022/03/03 12:31:43;;;;;;;13.00;9.35;;;;;;;;;;4981657;28;19932;-72
2022/03/03 12:34:10;;;;;;;16.48;10.18;;;;;;;;;;4985904;28;20042;-72
2022/03/03 12:36:37;;;;;;;13.35;8.90;;;;;;;;;;4970194;28;20047;-72
2022/03/03 12:39:05;;;;;;;13.27;9.52;;;;;;;;;;4985412;28;20057;-71
2022/03/03 12:41:32;;;;;;;12.23;8.80;;;;;;;;;;4975635;28;20427;-72
2022/03/03 12:44:07;;;;;;;14.77;9.82;;;;;;;;;;4973480;28;20043;-72
2022/03/03 12:46:34;;;;;;;13.65;10.15;;;;;;;;;;4975076;28;20065;-72
2022/03/03 12:49:08;;;;;;;14.65;10.05;;;;;;;;;;4994091;28;20054;-72
2022/03/03 12:51:43;;;;;;;14.30;10.35;;;;;;;;;;4981194;28;20081;-72
2022/03/03 12:54:10;;;;;;;15.05;9.60;;;;;;;;;;4976084;28;20515;-72
2022/03/03 12:56:36;;;;;;;16.75;8.93;;;;;;;;;;4988678;28;20168;-72
2022/03/03 12:59:07;;;;;;;12.68;9.10;;;;;;;;;;4988478;28;20050;-72
2022/03/03 13:01:35;;;;;;;12.80;8.13;;;;;;;;;;4973387;28;20050;-72
2022/03/03 13:04:04;;;;;;;10.85;9.02;;;;;;;;;;4972960;28;20495;-72
2022/03/03 13:06:30;;;;;;;;;;;;;;;;;;4990627;28;20050;-72
2022/03/03 13:09:01;;;;;;;13.32;8.77;;;;;;;;;;4981217;28;20375;-72
2022/03/03 13:11:27;;;;;;;11.95;8.85;;;;;;;;;;4976159;28;20065;-72
2022/03/03 13:13:57;;;;;;;16.63;9.38;;;;;;;;;;4982085;28;20050;-72
2022/03/03 13:16:24;;;;;;;13.38;9.20;;;;;;;;;;4979178;28;20440;-72
2022/03/03 13:18:51;;;;;;;11.02;8.60;;;;;;;;;;4983839;28;20141;-72
2022/03/03 13:21:18;;;;;;;11.95;9.27;;;;;;;;;;4980792;28;20417;-72
2022/03/03 13:23:46;;;;;;;10.93;8.65;;;;;;;;;;4981500;28;20050;-72
2022/03/03 13:26:17;;;;;;;9.67;8.30;;;;;;;;;;4977738;28;20296;-72
2022/03/03 13:28:45;;;;;;;11.07;9.02;;;;;;;;;;4986794;28;20050;-72
2022/03/03 13:31:12;;;;;;;11.55;8.52;;;;;;;;;;4985445;28;20557;-72
2022/03/03 13:33:46;;;;;;;13.77;8.93;;;;;;;;;;4974501;28;20138;-72
2022/03/03 13:36:14;;;;;;;12.52;8.82;;;;;;;;;;4984082;28;20488;-72
2022/03/03 13:38:40;;;;;;;14.43;8.93;;;;;;;;;;4974731;28;20046;-72
2022/03/03 13:41:20;;;;;;;13.25;9.48;;;;;;;;;;4975108;28;20527;-72
2022/03/03 13:43:47;;;;;;;13.07;9.73;;;;;;;;;;4976741;28;20069;-72
2022/03/03 13:46:32;;;;;;;12.70;9.15;;;;;;;;;;4983397;28;20459;-72
2022/03/03 13:48:58;;;;;;;12.90;8.80;;;;;;;;;;4984214;28;20057;-72
2022/03/03 13:51:24;;;;;;;14.10;9.82;;;;;;;;;;4982779;28;20562;-72
2022/03/03 13:54:03;;;;;;;11.75;9.02;;;;;;;;;;4978251;28;20046;-72
2022/03/03 13:56:31;;;;;;;12.40;8.82;;;;;;;;;;4970987;28;20038;-72
2022/03/03 13:59:04;;;;;;;11.45;7.63;;;;;;;;;;4979319;28;20820;-72
2022/03/03 14:01:33;;;;;;;10.45;8.25;;;;;;;;;;4977082;28;20447;-72
2022/03/03 14:04:13;;;;;;;9.77;7.80;;;;;;;;;;4981423;28;20054;-72
2022/03/03 14:06:41;;;;;;;10.30;8.30;;;;;;;;;;4978732;28;20054;-72
2022/03/03 14:09:07;;;;;;;9.98;7.70;;;;;;;;;;4976421;28;20073;-72
2022/03/03 14:11:34;;;;;;;10.90;8.10;;;;;;;;;;4968198;28;20058;-72
2022/03/03 14:14:01;;;;;;;11.40;7.57;;;;;;;;;;4974545;28;20068;-72
2022/03/03 14:16:31;;;;;;;13.40;8.23;;;;;;;;;;4982814;28;20054;-72
2022/03/03 14:18:59;;;;;;;9.90;7.93;;;;;;;;;;4972721;28;20054;-72
2022/03/03 14:21:25;;;;;;;11.03;7.87;;;;;;;;;;4970902;28;20046;-72
2022/03/03 14:23:52;;;;;;;10.68;7.82;;;;;;;;;;4968187;28;20289;-72
2022/03/03 14:26:34;;;;;;;10.23;7.85;;;;;;;;;;4979699;28;20050;-72